sensor_id;sensor_type;location;lat;lon;timestamp;P1;durP1;ratioP1;P2;durP2;ratioP2
46643;SDS011;32371;51.032;5.816;2022-07-29T00:00:18;2.30;;;1.05;;
46643;SDS011;32371;51.032;5.816;2022-07-29T00:02:44;1.55;;;0.60;;
46643;SDS011;32371;51.032;5.816;2022-07-29T00:05:09;2.72;;;0.73;;
46643;SDS011;32371;51.032;5.816;2022-07-29T00:07:38;2.20;;;1.15;;
46643;SDS011;32371;51.032;5.816;2022-07-29T00:10:04;4.80;;;0.93;;
46643;SDS011;32371;51.032;5.816;2022-07-29T00:12:29;2.88;;;0.70;;
46643;SDS011;32371;51.032;5.816;2022-07-29T00:14:55;1.60;;;0.85;;
46643;SDS011;32371;51.032;5.816;2022-07-29T00:17:21;5.93;;;1.00;;
46643;SDS011;32371;51.032;5.816;2022-07-29T00:19:47;1.70;;;0.75;;
46643;SDS011;32371;51.032;5.816;2022-07-29T00:22:13;1.42;;;0.60;;
46643;SDS011;32371;51.032;5.816;2022-07-29T00:24:38;6.15;;;1.30;;
46643;SDS011;32371;51.032;5.816;2022-07-29T00:27:04;1.98;;;0.57;;
46643;SDS011;32371;51.032;5.816;2022-07-29T00:29:29;2.85;;;0.68;;
46643;SDS011;32371;51.032;5.816;2022-07-29T00:31:54;2.35;;;1.00;;
46643;SDS011;32371;51.032;5.816;2022-07-29T00:34:20;5.18;;;1.30;;
46643;SDS011;32371;51.032;5.816;2022-07-29T00:37:04;3.63;;;1.08;;
46643;SDS011;32371;51.032;5.816;2022-07-29T00:39:29;12.38;;;1.45;;
46643;SDS011;32371;51.032;5.816;2022-07-29T00:41:54;4.53;;;1.23;;
46643;SDS011;32371;51.032;5.816;2022-07-29T00:44:20;3.20;;;1.15;;
46643;SDS011;32371;51.032;5.816;2022-07-29T00:46:45;5.95;;;1.00;;
46643;SDS011;32371;51.032;5.816;2022-07-29T00:49:10;3.60;;;0.77;;
46643;SDS011;32371;51.032;5.816;2022-07-29T00:51:36;4.72;;;1.20;;
46643;SDS011;32371;51.032;5.816;2022-07-29T00:54:02;4.15;;;1.13;;
46643;SDS011;32371;51.032;5.816;2022-07-29T00:56:32;9.50;;;1.20;;
46643;SDS011;32371;51.032;5.816;2022-07-29T00:58:58;3.05;;;1.23;;
46643;SDS011;32371;51.032;5.816;2022-07-29T01:01:23;3.83;;;1.13;;
46643;SDS011;32371;51.032;5.816;2022-07-29T01:03:49;9.50;;;2.03;;
46643;SDS011;32371;51.032;5.816;2022-07-29T01:06:15;6.65;;;1.05;;
46643;SDS011;32371;51.032;5.816;2022-07-29T01:08:41;5.85;;;1.00;;
46643;SDS011;32371;51.032;5.816;2022-07-29T01:11:07;8.73;;;1.38;;
46643;SDS011;32371;51.032;5.816;2022-07-29T01:13:32;4.13;;;1.58;;
46643;SDS011;32371;51.032;5.816;2022-07-29T01:15:59;4.25;;;1.20;;
46643;SDS011;32371;51.032;5.816;2022-07-29T01:18:39;4.90;;;1.05;;
46643;SDS011;32371;51.032;5.816;2022-07-29T01:32:20;2.63;;;1.40;;
46643;SDS011;32371;51.032;5.816;2022-07-29T01:34:50;2.35;;;1.50;;
46643;SDS011;32371;51.032;5.816;2022-07-29T01:37:21;12.80;;;1.67;;
46643;SDS011;32371;51.032;5.816;2022-07-29T01:39:49;3.28;;;1.10;;
46643;SDS011;32371;51.032;5.816;2022-07-29T01:45:18;1.52;;;0.90;;
46643;SDS011;32371;51.032;5.816;2022-07-29T01:47:50;5.35;;;1.42;;
46643;SDS011;32371;51.032;5.816;2022-07-29T01:50:23;8.65;;;1.20;;
46643;SDS011;32371;51.032;5.816;2022-07-29T01:52:54;2.97;;;1.20;;
46643;SDS011;32371;51.032;5.816;2022-07-29T01:55:22;2.58;;;1.55;;
46643;SDS011;32371;51.032;5.816;2022-07-29T01:57:51;3.85;;;1.40;;
46643;SDS011;32371;51.032;5.816;2022-07-29T02:00:17;2.90;;;1.00;;
46643;SDS011;32371;51.032;5.816;2022-07-29T02:02:43;4.43;;;1.25;;
46643;SDS011;32371;51.032;5.816;2022-07-29T02:05:10;1.00;;;0.80;;
46643;SDS011;32371;51.032;5.816;2022-07-29T02:07:36;3.70;;;0.90;;
46643;SDS011;32371;51.032;5.816;2022-07-29T02:10:02;3.95;;;1.08;;
46643;SDS011;32371;51.032;5.816;2022-07-29T02:12:28;4.53;;;1.20;;
46643;SDS011;32371;51.032;5.816;2022-07-29T02:14:54;5.95;;;2.30;;
46643;SDS011;32371;51.032;5.816;2022-07-29T02:17:35;1.13;;;0.93;;
46643;SDS011;32371;51.032;5.816;2022-07-29T02:20:04;5.13;;;1.30;;
46643;SDS011;32371;51.032;5.816;2022-07-29T02:22:31;2.25;;;1.23;;
46643;SDS011;32371;51.032;5.816;2022-07-29T02:24:58;4.50;;;0.95;;
46643;SDS011;32371;51.032;5.816;2022-07-29T02:27:24;2.63;;;1.15;;
46643;SDS011;32371;51.032;5.816;2022-07-29T02:29:52;1.88;;;1.30;;
46643;SDS011;32371;51.032;5.816;2022-07-29T02:32:18;5.47;;;1.20;;
46643;SDS011;32371;51.032;5.816;2022-07-29T02:34:44;2.13;;;0.98;;
46643;SDS011;32371;51.032;5.816;2022-07-29T02:37:11;1.63;;;1.25;;
46643;SDS011;32371;51.032;5.816;2022-07-29T02:39:37;0.88;;;0.85;;
46643;SDS011;32371;51.032;5.816;2022-07-29T02:42:05;2.08;;;0.98;;
46643;SDS011;32371;51.032;5.816;2022-07-29T02:44:33;1.85;;;1.27;;
46643;SDS011;32371;51.032;5.816;2022-07-29T02:47:18;2.92;;;1.15;;
46643;SDS011;32371;51.032;5.816;2022-07-29T02:52:40;2.90;;;1.58;;
46643;SDS011;32371;51.032;5.816;2022-07-29T02:57:51;2.15;;;1.10;;
46643;SDS011;32371;51.032;5.816;2022-07-29T03:00:20;2.67;;;1.38;;
46643;SDS011;32371;51.032;5.816;2022-07-29T03:02:46;2.58;;;1.50;;
46643;SDS011;32371;51.032;5.816;2022-07-29T03:05:16;2.05;;;1.15;;
46643;SDS011;32371;51.032;5.816;2022-07-29T03:07:45;6.65;;;1.65;;
46643;SDS011;32371;51.032;5.816;2022-07-29T03:10:12;1.88;;;1.20;;
46643;SDS011;32371;51.032;5.816;2022-07-29T03:12:38;1.63;;;1.30;;
46643;SDS011;32371;51.032;5.816;2022-07-29T03:15:05;3.35;;;1.33;;
46643;SDS011;32371;51.032;5.816;2022-07-29T03:17:31;2.63;;;1.38;;
46643;SDS011;32371;51.032;5.816;2022-07-29T03:19:57;1.80;;;1.48;;
46643;SDS011;32371;51.032;5.816;2022-07-29T03:22:23;2.13;;;1.65;;
46643;SDS011;32371;51.032;5.816;2022-07-29T03:24:49;4.43;;;1.38;;
46643;SDS011;32371;51.032;5.816;2022-07-29T03:27:14;5.65;;;1.58;;
46643;SDS011;32371;51.032;5.816;2022-07-29T03:29:39;5.70;;;1.33;;
46643;SDS011;32371;51.032;5.816;2022-07-29T03:32:05;1.45;;;1.30;;
46643;SDS011;32371;51.032;5.816;2022-07-29T03:34:31;3.20;;;1.42;;
46643;SDS011;32371;51.032;5.816;2022-07-29T03:36:56;3.30;;;1.48;;
46643;SDS011;32371;51.032;5.816;2022-07-29T03:39:23;5.63;;;1.30;;
46643;SDS011;32371;51.032;5.816;2022-07-29T03:41:52;4.57;;;1.40;;
46643;SDS011;32371;51.032;5.816;2022-07-29T03:44:18;4.25;;;1.58;;
46643;SDS011;32371;51.032;5.816;2022-07-29T03:46:45;3.03;;;1.60;;
46643;SDS011;32371;51.032;5.816;2022-07-29T03:49:14;2.38;;;1.60;;
46643;SDS011;32371;51.032;5.816;2022-07-29T03:51:40;3.95;;;1.25;;
46643;SDS011;32371;51.032;5.816;2022-07-29T03:54:05;3.55;;;2.22;;
46643;SDS011;32371;51.032;5.816;2022-07-29T03:56:32;4.93;;;1.50;;
46643;SDS011;32371;51.032;5.816;2022-07-29T03:58:59;3.97;;;1.27;;
46643;SDS011;32371;51.032;5.816;2022-07-29T04:01:26;8.95;;;2.00;;
46643;SDS011;32371;51.032;5.816;2022-07-29T04:03:53;5.35;;;1.60;;
46643;SDS011;32371;51.032;5.816;2022-07-29T04:06:18;3.38;;;1.63;;
46643;SDS011;32371;51.032;5.816;2022-07-29T04:08:43;3.25;;;1.65;;
46643;SDS011;32371;51.032;5.816;2022-07-29T04:11:09;3.63;;;1.52;;
46643;SDS011;32371;51.032;5.816;2022-07-29T04:13:34;1.50;;;1.10;;
46643;SDS011;32371;51.032;5.816;2022-07-29T04:16:00;10.18;;;1.50;;
46643;SDS011;32371;51.032;5.816;2022-07-29T04:18:26;3.03;;;1.52;;
46643;SDS011;32371;51.032;5.816;2022-07-29T04:20:51;4.18;;;1.77;;
46643;SDS011;32371;51.032;5.816;2022-07-29T04:23:17;5.18;;;1.50;;
46643;SDS011;32371;51.032;5.816;2022-07-29T04:25:42;2.88;;;1.38;;
46643;SDS011;32371;51.032;5.816;2022-07-29T04:28:08;4.45;;;1.58;;
46643;SDS011;32371;51.032;5.816;2022-07-29T04:30:35;4.82;;;1.83;;
46643;SDS011;32371;51.032;5.816;2022-07-29T04:33:01;2.42;;;1.33;;
46643;SDS011;32371;51.032;5.816;2022-07-29T04:35:28;3.88;;;1.70;;
46643;SDS011;32371;51.032;5.816;2022-07-29T04:37:54;5.63;;;2.03;;
46643;SDS011;32371;51.032;5.816;2022-07-29T04:40:19;2.55;;;1.95;;
46643;SDS011;32371;51.032;5.816;2022-07-29T04:42:45;4.90;;;1.60;;
46643;SDS011;32371;51.032;5.816;2022-07-29T04:45:10;7.55;;;1.83;;
46643;SDS011;32371;51.032;5.816;2022-07-29T04:47:35;4.60;;;1.55;;
46643;SDS011;32371;51.032;5.816;2022-07-29T04:50:01;3.78;;;1.63;;
46643;SDS011;32371;51.032;5.816;2022-07-29T04:52:26;3.15;;;2.03;;
46643;SDS011;32371;51.032;5.816;2022-07-29T04:54:51;3.15;;;1.77;;
46643;SDS011;32371;51.032;5.816;2022-07-29T04:57:17;3.22;;;1.42;;
46643;SDS011;32371;51.032;5.816;2022-07-29T04:59:42;3.75;;;1.88;;
46643;SDS011;32371;51.032;5.816;2022-07-29T05:02:08;9.30;;;2.33;;
46643;SDS011;32371;51.032;5.816;2022-07-29T05:04:34;5.30;;;1.48;;
46643;SDS011;32371;51.032;5.816;2022-07-29T05:06:59;2.92;;;1.70;;
46643;SDS011;32371;51.032;5.816;2022-07-29T05:09:24;5.90;;;1.83;;
46643;SDS011;32371;51.032;5.816;2022-07-29T05:11:50;1.80;;;1.70;;
46643;SDS011;32371;51.032;5.816;2022-07-29T05:14:15;4.72;;;1.73;;
46643;SDS011;32371;51.032;5.816;2022-07-29T05:16:40;3.30;;;1.90;;
46643;SDS011;32371;51.032;5.816;2022-07-29T05:19:07;2.95;;;1.90;;
46643;SDS011;32371;51.032;5.816;2022-07-29T05:21:32;8.52;;;2.85;;
46643;SDS011;32371;51.032;5.816;2022-07-29T05:23:58;6.53;;;2.30;;
46643;SDS011;32371;51.032;5.816;2022-07-29T05:26:23;4.72;;;2.17;;
46643;SDS011;32371;51.032;5.816;2022-07-29T05:28:48;4.07;;;1.90;;
46643;SDS011;32371;51.032;5.816;2022-07-29T05:31:14;4.63;;;2.10;;
46643;SDS011;32371;51.032;5.816;2022-07-29T05:33:40;5.72;;;2.72;;
46643;SDS011;32371;51.032;5.816;2022-07-29T05:36:06;4.47;;;2.33;;
46643;SDS011;32371;51.032;5.816;2022-07-29T05:38:32;5.88;;;2.17;;
46643;SDS011;32371;51.032;5.816;2022-07-29T05:40:58;2.83;;;1.85;;
46643;SDS011;32371;51.032;5.816;2022-07-29T05:43:24;5.25;;;2.30;;
46643;SDS011;32371;51.032;5.816;2022-07-29T05:45:53;3.80;;;2.13;;
46643;SDS011;32371;51.032;5.816;2022-07-29T05:48:19;6.05;;;2.47;;
46643;SDS011;32371;51.032;5.816;2022-07-29T05:50:44;7.80;;;2.20;;
46643;SDS011;32371;51.032;5.816;2022-07-29T05:53:10;3.03;;;1.90;;
46643;SDS011;32371;51.032;5.816;2022-07-29T05:55:35;4.18;;;1.95;;
46643;SDS011;32371;51.032;5.816;2022-07-29T05:58:00;4.80;;;2.00;;
46643;SDS011;32371;51.032;5.816;2022-07-29T06:00:26;4.10;;;2.25;;
46643;SDS011;32371;51.032;5.816;2022-07-29T06:02:51;6.20;;;1.83;;
46643;SDS011;32371;51.032;5.816;2022-07-29T06:05:17;2.95;;;1.70;;
46643;SDS011;32371;51.032;5.816;2022-07-29T06:07:42;3.17;;;1.90;;
46643;SDS011;32371;51.032;5.816;2022-07-29T06:10:08;3.25;;;1.90;;
46643;SDS011;32371;51.032;5.816;2022-07-29T06:12:34;2.83;;;2.28;;
46643;SDS011;32371;51.032;5.816;2022-07-29T06:14:59;3.90;;;1.77;;
46643;SDS011;32371;51.032;5.816;2022-07-29T06:17:24;5.70;;;2.22;;
46643;SDS011;32371;51.032;5.816;2022-07-29T06:19:50;2.78;;;2.08;;
46643;SDS011;32371;51.032;5.816;2022-07-29T06:22:16;2.70;;;2.25;;
46643;SDS011;32371;51.032;5.816;2022-07-29T06:24:42;3.30;;;2.28;;
46643;SDS011;32371;51.032;5.816;2022-07-29T06:27:09;3.08;;;1.90;;
46643;SDS011;32371;51.032;5.816;2022-07-29T06:29:37;4.68;;;2.10;;
46643;SDS011;32371;51.032;5.816;2022-07-29T06:32:03;4.88;;;2.10;;
46643;SDS011;32371;51.032;5.816;2022-07-29T06:34:29;5.18;;;2.20;;
46643;SDS011;32371;51.032;5.816;2022-07-29T06:36:54;4.45;;;2.42;;
46643;SDS011;32371;51.032;5.816;2022-07-29T06:39:19;4.68;;;2.60;;
46643;SDS011;32371;51.032;5.816;2022-07-29T06:41:48;11.25;;;2.22;;
46643;SDS011;32371;51.032;5.816;2022-07-29T06:44:15;5.53;;;2.10;;
46643;SDS011;32371;51.032;5.816;2022-07-29T06:46:41;4.10;;;2.30;;
46643;SDS011;32371;51.032;5.816;2022-07-29T06:49:06;3.60;;;2.67;;
46643;SDS011;32371;51.032;5.816;2022-07-29T06:51:32;3.22;;;2.25;;
46643;SDS011;32371;51.032;5.816;2022-07-29T06:53:58;9.00;;;2.30;;
46643;SDS011;32371;51.032;5.816;2022-07-29T06:56:23;4.95;;;2.15;;
46643;SDS011;32371;51.032;5.816;2022-07-29T06:58:49;3.17;;;2.03;;
46643;SDS011;32371;51.032;5.816;2022-07-29T07:01:14;6.07;;;2.28;;
46643;SDS011;32371;51.032;5.816;2022-07-29T07:03:40;7.88;;;3.30;;
46643;SDS011;32371;51.032;5.816;2022-07-29T07:06:06;10.10;;;3.17;;
46643;SDS011;32371;51.032;5.816;2022-07-29T07:08:32;5.57;;;2.20;;
46643;SDS011;32371;51.032;5.816;2022-07-29T07:10:58;5.28;;;2.25;;
46643;SDS011;32371;51.032;5.816;2022-07-29T07:13:23;4.80;;;1.90;;
46643;SDS011;32371;51.032;5.816;2022-07-29T07:15:49;4.63;;;2.15;;
46643;SDS011;32371;51.032;5.816;2022-07-29T07:18:15;5.60;;;2.80;;
46643;SDS011;32371;51.032;5.816;2022-07-29T07:20:41;6.57;;;1.85;;
46643;SDS011;32371;51.032;5.816;2022-07-29T07:23:07;3.17;;;1.77;;
46643;SDS011;32371;51.032;5.816;2022-07-29T07:25:33;8.80;;;2.00;;
46643;SDS011;32371;51.032;5.816;2022-07-29T07:27:58;3.75;;;2.42;;
46643;SDS011;32371;51.032;5.816;2022-07-29T07:30:23;2.40;;;1.65;;
46643;SDS011;32371;51.032;5.816;2022-07-29T07:32:49;3.20;;;2.00;;
46643;SDS011;32371;51.032;5.816;2022-07-29T07:35:14;3.78;;;2.10;;
46643;SDS011;32371;51.032;5.816;2022-07-29T07:37:40;6.25;;;2.25;;
46643;SDS011;32371;51.032;5.816;2022-07-29T07:40:06;4.15;;;2.08;;
46643;SDS011;32371;51.032;5.816;2022-07-29T07:42:33;4.70;;;2.05;;
46643;SDS011;32371;51.032;5.816;2022-07-29T07:44:58;4.30;;;2.60;;
46643;SDS011;32371;51.032;5.816;2022-07-29T07:47:24;4.97;;;2.20;;
46643;SDS011;32371;51.032;5.816;2022-07-29T07:49:49;6.65;;;2.42;;
46643;SDS011;32371;51.032;5.816;2022-07-29T07:52:16;5.32;;;2.10;;
46643;SDS011;32371;51.032;5.816;2022-07-29T07:54:41;6.10;;;3.05;;
46643;SDS011;32371;51.032;5.816;2022-07-29T07:57:09;5.07;;;2.17;;
46643;SDS011;32371;51.032;5.816;2022-07-29T07:59:34;6.32;;;2.60;;
46643;SDS011;32371;51.032;5.816;2022-07-29T08:02:00;2.40;;;1.85;;
46643;SDS011;32371;51.032;5.816;2022-07-29T08:04:26;3.67;;;2.45;;
46643;SDS011;32371;51.032;5.816;2022-07-29T08:06:52;6.22;;;2.63;;
46643;SDS011;32371;51.032;5.816;2022-07-29T08:09:19;4.18;;;1.88;;
46643;SDS011;32371;51.032;5.816;2022-07-29T08:11:45;8.30;;;2.50;;
46643;SDS011;32371;51.032;5.816;2022-07-29T08:14:10;5.82;;;2.40;;
46643;SDS011;32371;51.032;5.816;2022-07-29T08:16:35;6.18;;;2.00;;
46643;SDS011;32371;51.032;5.816;2022-07-29T08:19:01;3.80;;;2.13;;
46643;SDS011;32371;51.032;5.816;2022-07-29T08:21:26;13.02;;;2.20;;
46643;SDS011;32371;51.032;5.816;2022-07-29T08:23:52;8.20;;;2.25;;
46643;SDS011;32371;51.032;5.816;2022-07-29T08:26:18;3.88;;;2.50;;
46643;SDS011;32371;51.032;5.816;2022-07-29T08:28:44;10.05;;;2.28;;
46643;SDS011;32371;51.032;5.816;2022-07-29T08:31:11;4.95;;;2.08;;
46643;SDS011;32371;51.032;5.816;2022-07-29T08:33:37;3.70;;;2.10;;
46643;SDS011;32371;51.032;5.816;2022-07-29T08:36:02;4.50;;;1.98;;
46643;SDS011;32371;51.032;5.816;2022-07-29T08:38:28;4.88;;;2.03;;
46643;SDS011;32371;51.032;5.816;2022-07-29T08:40:53;4.68;;;1.98;;
46643;SDS011;32371;51.032;5.816;2022-07-29T08:43:19;6.30;;;2.30;;
46643;SDS011;32371;51.032;5.816;2022-07-29T08:45:51;9.57;;;2.38;;
46643;SDS011;32371;51.032;5.816;2022-07-29T08:50:44;6.63;;;2.15;;
46643;SDS011;32371;51.032;5.816;2022-07-29T08:53:11;4.10;;;1.80;;
46643;SDS011;32371;51.032;5.816;2022-07-29T08:55:39;5.88;;;1.70;;
46643;SDS011;32371;51.032;5.816;2022-07-29T08:58:08;4.63;;;2.08;;
46643;SDS011;32371;51.032;5.816;2022-07-29T09:00:33;5.18;;;1.95;;
46643;SDS011;32371;51.032;5.816;2022-07-29T09:03:01;7.00;;;1.73;;
46643;SDS011;32371;51.032;5.816;2022-07-29T09:05:27;7.93;;;2.30;;
46643;SDS011;32371;51.032;5.816;2022-07-29T09:07:53;6.07;;;1.92;;
46643;SDS011;32371;51.032;5.816;2022-07-29T09:10:18;6.30;;;1.77;;
46643;SDS011;32371;51.032;5.816;2022-07-29T09:12:44;3.35;;;1.83;;
46643;SDS011;32371;51.032;5.816;2022-07-29T09:15:10;9.05;;;2.30;;
46643;SDS011;32371;51.032;5.816;2022-07-29T09:17:39;3.47;;;2.28;;
46643;SDS011;32371;51.032;5.816;2022-07-29T09:20:12;8.20;;;1.90;;
46643;SDS011;32371;51.032;5.816;2022-07-29T09:22:41;4.57;;;2.17;;
46643;SDS011;32371;51.032;5.816;2022-07-29T09:25:07;4.35;;;2.28;;
46643;SDS011;32371;51.032;5.816;2022-07-29T09:27:33;3.17;;;2.03;;
46643;SDS011;32371;51.032;5.816;2022-07-29T09:30:00;9.40;;;1.92;;
46643;SDS011;32371;51.032;5.816;2022-07-29T09:32:57;5.45;;;2.17;;
46643;SDS011;32371;51.032;5.816;2022-07-29T09:35:24;3.38;;;2.33;;
46643;SDS011;32371;51.032;5.816;2022-07-29T09:37:50;4.93;;;2.35;;
46643;SDS011;32371;51.032;5.816;2022-07-29T09:40:17;7.47;;;1.92;;
46643;SDS011;32371;51.032;5.816;2022-07-29T09:42:44;6.60;;;2.25;;
46643;SDS011;32371;51.032;5.816;2022-07-29T09:45:10;5.45;;;2.38;;
46643;SDS011;32371;51.032;5.816;2022-07-29T09:47:43;5.13;;;2.00;;
46643;SDS011;32371;51.032;5.816;2022-07-29T09:50:14;4.75;;;2.17;;
46643;SDS011;32371;51.032;5.816;2022-07-29T09:52:47;4.55;;;1.88;;
46643;SDS011;32371;51.032;5.816;2022-07-29T09:55:13;6.10;;;1.83;;
46643;SDS011;32371;51.032;5.816;2022-07-29T09:57:39;3.20;;;1.45;;
46643;SDS011;32371;51.032;5.816;2022-07-29T10:00:09;7.25;;;2.15;;
46643;SDS011;32371;51.032;5.816;2022-07-29T10:02:37;10.88;;;1.98;;
46643;SDS011;32371;51.032;5.816;2022-07-29T10:05:04;3.92;;;2.60;;
46643;SDS011;32371;51.032;5.816;2022-07-29T10:10:10;7.43;;;2.25;;
46643;SDS011;32371;51.032;5.816;2022-07-29T10:12:48;4.53;;;2.03;;
46643;SDS011;32371;51.032;5.816;2022-07-29T10:15:15;10.02;;;2.15;;
46643;SDS011;32371;51.032;5.816;2022-07-29T10:17:40;3.30;;;1.90;;
46643;SDS011;32371;51.032;5.816;2022-07-29T10:20:06;5.97;;;1.98;;
46643;SDS011;32371;51.032;5.816;2022-07-29T10:22:32;3.60;;;2.47;;
46643;SDS011;32371;51.032;5.816;2022-07-29T10:24:58;2.67;;;2.22;;
46643;SDS011;32371;51.032;5.816;2022-07-29T10:27:24;3.50;;;2.10;;
46643;SDS011;32371;51.032;5.816;2022-07-29T10:29:49;2.45;;;1.77;;
46643;SDS011;32371;51.032;5.816;2022-07-29T10:32:17;3.33;;;2.42;;
46643;SDS011;32371;51.032;5.816;2022-07-29T10:40:45;7.00;;;2.58;;
46643;SDS011;32371;51.032;5.816;2022-07-29T10:43:33;4.55;;;2.00;;
46643;SDS011;32371;51.032;5.816;2022-07-29T10:46:02;3.45;;;2.00;;
46643;SDS011;32371;51.032;5.816;2022-07-29T10:48:28;2.40;;;2.17;;
46643;SDS011;32371;51.032;5.816;2022-07-29T10:56:25;2.80;;;2.30;;
46643;SDS011;32371;51.032;5.816;2022-07-29T11:01:49;4.35;;;1.73;;
46643;SDS011;32371;51.032;5.816;2022-07-29T11:04:16;3.13;;;1.73;;
46643;SDS011;32371;51.032;5.816;2022-07-29T11:09:25;4.65;;;2.22;;
46643;SDS011;32371;51.032;5.816;2022-07-29T11:11:51;3.20;;;2.67;;
46643;SDS011;32371;51.032;5.816;2022-07-29T11:14:16;1.58;;;1.48;;
46643;SDS011;32371;51.032;5.816;2022-07-29T11:17:02;4.28;;;1.90;;
46643;SDS011;32371;51.032;5.816;2022-07-29T11:19:31;1.98;;;1.70;;
46643;SDS011;32371;51.032;5.816;2022-07-29T11:21:56;1.95;;;1.85;;
46643;SDS011;32371;51.032;5.816;2022-07-29T11:24:23;1.88;;;1.33;;
46643;SDS011;32371;51.032;5.816;2022-07-29T11:27:09;1.40;;;1.30;;
46643;SDS011;32371;51.032;5.816;2022-07-29T11:29:55;2.40;;;1.80;;
46643;SDS011;32371;51.032;5.816;2022-07-29T11:32:22;3.00;;;2.30;;
46643;SDS011;32371;51.032;5.816;2022-07-29T11:34:49;6.32;;;1.58;;
46643;SDS011;32371;51.032;5.816;2022-07-29T11:37:43;1.38;;;1.25;;
46643;SDS011;32371;51.032;5.816;2022-07-29T11:40:10;2.95;;;1.98;;
46643;SDS011;32371;51.032;5.816;2022-07-29T11:45:09;3.20;;;2.03;;
46643;SDS011;32371;51.032;5.816;2022-07-29T11:50:11;6.47;;;2.30;;
46643;SDS011;32371;51.032;5.816;2022-07-29T11:52:39;3.50;;;1.73;;
46643;SDS011;32371;51.032;5.816;2022-07-29T11:55:10;1.25;;;1.13;;
46643;SDS011;32371;51.032;5.816;2022-07-29T11:57:38;3.53;;;1.23;;
46643;SDS011;32371;51.032;5.816;2022-07-29T12:00:11;4.03;;;1.20;;
46643;SDS011;32371;51.032;5.816;2022-07-29T12:02:43;3.83;;;1.27;;
46643;SDS011;32371;51.032;5.816;2022-07-29T12:05:09;1.20;;;1.10;;
46643;SDS011;32371;51.032;5.816;2022-07-29T12:07:36;1.67;;;1.17;;
46643;SDS011;32371;51.032;5.816;2022-07-29T12:10:02;5.80;;;2.20;;
46643;SDS011;32371;51.032;5.816;2022-07-29T12:12:28;2.67;;;1.30;;
46643;SDS011;32371;51.032;5.816;2022-07-29T12:14:54;3.10;;;1.20;;
46643;SDS011;32371;51.032;5.816;2022-07-29T12:17:30;4.25;;;1.25;;
46643;SDS011;32371;51.032;5.816;2022-07-29T12:19:58;4.22;;;1.20;;
46643;SDS011;32371;51.032;5.816;2022-07-29T12:22:32;2.90;;;1.05;;
46643;SDS011;32371;51.032;5.816;2022-07-29T12:25:03;2.42;;;0.95;;
46643;SDS011;32371;51.032;5.816;2022-07-29T12:27:37;6.47;;;1.15;;
46643;SDS011;32371;51.032;5.816;2022-07-29T12:30:06;3.15;;;1.10;;
46643;SDS011;32371;51.032;5.816;2022-07-29T12:32:34;1.52;;;0.90;;
46643;SDS011;32371;51.032;5.816;2022-07-29T12:35:11;2.33;;;1.30;;
46643;SDS011;32371;51.032;5.816;2022-07-29T12:37:41;1.20;;;1.10;;
46643;SDS011;32371;51.032;5.816;2022-07-29T12:40:08;0.85;;;0.85;;
46643;SDS011;32371;51.032;5.816;2022-07-29T12:42:36;2.40;;;0.80;;
46643;SDS011;32371;51.032;5.816;2022-07-29T12:45:03;5.70;;;0.90;;
46643;SDS011;32371;51.032;5.816;2022-07-29T12:47:29;3.58;;;0.80;;
46643;SDS011;32371;51.032;5.816;2022-07-29T12:52:53;1.25;;;1.02;;
46643;SDS011;32371;51.032;5.816;2022-07-29T12:58:03;2.97;;;1.00;;
46643;SDS011;32371;51.032;5.816;2022-07-29T13:00:28;3.63;;;0.95;;
46643;SDS011;32371;51.032;5.816;2022-07-29T13:02:55;1.00;;;0.90;;
46643;SDS011;32371;51.032;5.816;2022-07-29T13:05:21;3.58;;;0.80;;
46643;SDS011;32371;51.032;5.816;2022-07-29T13:07:47;2.38;;;0.90;;
46643;SDS011;32371;51.032;5.816;2022-07-29T13:15:28;0.80;;;0.70;;
46643;SDS011;32371;51.032;5.816;2022-07-29T13:17:54;1.45;;;1.20;;
46643;SDS011;32371;51.032;5.816;2022-07-29T13:20:23;2.30;;;1.25;;
46643;SDS011;32371;51.032;5.816;2022-07-29T13:22:49;1.25;;;1.15;;
46643;SDS011;32371;51.032;5.816;2022-07-29T13:25:15;1.40;;;0.90;;
46643;SDS011;32371;51.032;5.816;2022-07-29T13:27:48;2.10;;;0.80;;
46643;SDS011;32371;51.032;5.816;2022-07-29T13:30:14;1.42;;;0.90;;
46643;SDS011;32371;51.032;5.816;2022-07-29T13:32:40;2.75;;;1.40;;
46643;SDS011;32371;51.032;5.816;2022-07-29T13:35:06;3.45;;;1.20;;
46643;SDS011;32371;51.032;5.816;2022-07-29T13:37:33;1.17;;;0.90;;
46643;SDS011;32371;51.032;5.816;2022-07-29T13:40:00;2.20;;;1.15;;
46643;SDS011;32371;51.032;5.816;2022-07-29T13:42:28;5.82;;;1.38;;
46643;SDS011;32371;51.032;5.816;2022-07-29T13:44:53;1.88;;;1.00;;
46643;SDS011;32371;51.032;5.816;2022-07-29T13:47:19;5.80;;;1.63;;
46643;SDS011;32371;51.032;5.816;2022-07-29T13:49:44;4.00;;;1.30;;
46643;SDS011;32371;51.032;5.816;2022-07-29T13:52:10;1.58;;;1.10;;
46643;SDS011;32371;51.032;5.816;2022-07-29T13:54:35;4.45;;;1.42;;
46643;SDS011;32371;51.032;5.816;2022-07-29T13:57:02;2.65;;;1.17;;
46643;SDS011;32371;51.032;5.816;2022-07-29T13:59:28;1.63;;;1.00;;
46643;SDS011;32371;51.032;5.816;2022-07-29T14:01:54;4.95;;;1.23;;
46643;SDS011;32371;51.032;5.816;2022-07-29T14:04:19;3.05;;;1.40;;
46643;SDS011;32371;51.032;5.816;2022-07-29T14:06:44;4.00;;;1.30;;
46643;SDS011;32371;51.032;5.816;2022-07-29T14:09:10;2.33;;;1.45;;
46643;SDS011;32371;51.032;5.816;2022-07-29T14:11:35;4.60;;;1.35;;
46643;SDS011;32371;51.032;5.816;2022-07-29T14:14:03;3.47;;;1.60;;
46643;SDS011;32371;51.032;5.816;2022-07-29T14:16:28;1.40;;;1.23;;
46643;SDS011;32371;51.032;5.816;2022-07-29T14:18:54;2.45;;;1.10;;
46643;SDS011;32371;51.032;5.816;2022-07-29T14:21:19;3.85;;;1.17;;
46643;SDS011;32371;51.032;5.816;2022-07-29T14:23:44;2.17;;;1.10;;
46643;SDS011;32371;51.032;5.816;2022-07-29T14:26:10;4.47;;;1.05;;
46643;SDS011;32371;51.032;5.816;2022-07-29T14:28:35;2.72;;;1.50;;
46643;SDS011;32371;51.032;5.816;2022-07-29T14:31:00;2.20;;;1.38;;
46643;SDS011;32371;51.032;5.816;2022-07-29T14:33:26;1.30;;;1.20;;
46643;SDS011;32371;51.032;5.816;2022-07-29T14:35:51;2.95;;;1.15;;
46643;SDS011;32371;51.032;5.816;2022-07-29T14:38:17;2.50;;;1.83;;
46643;SDS011;32371;51.032;5.816;2022-07-29T14:40:42;3.47;;;1.45;;
46643;SDS011;32371;51.032;5.816;2022-07-29T14:43:07;3.80;;;1.73;;
46643;SDS011;32371;51.032;5.816;2022-07-29T14:45:33;1.60;;;1.45;;
46643;SDS011;32371;51.032;5.816;2022-07-29T14:47:58;4.10;;;1.40;;
46643;SDS011;32371;51.032;5.816;2022-07-29T14:50:24;1.42;;;1.30;;
46643;SDS011;32371;51.032;5.816;2022-07-29T14:52:51;2.88;;;1.42;;
46643;SDS011;32371;51.032;5.816;2022-07-29T14:55:17;3.60;;;1.38;;
46643;SDS011;32371;51.032;5.816;2022-07-29T14:57:42;1.20;;;1.10;;
46643;SDS011;32371;51.032;5.816;2022-07-29T15:00:08;5.15;;;1.65;;
46643;SDS011;32371;51.032;5.816;2022-07-29T15:02:35;2.20;;;1.27;;
46643;SDS011;32371;51.032;5.816;2022-07-29T15:05:00;3.80;;;1.80;;
46643;SDS011;32371;51.032;5.816;2022-07-29T15:07:25;1.20;;;1.10;;
46643;SDS011;32371;51.032;5.816;2022-07-29T15:09:51;6.13;;;1.42;;
46643;SDS011;32371;51.032;5.816;2022-07-29T15:12:16;3.72;;;1.27;;
46643;SDS011;32371;51.032;5.816;2022-07-29T15:14:42;7.00;;;1.15;;
46643;SDS011;32371;51.032;5.816;2022-07-29T15:17:07;4.80;;;1.77;;
46643;SDS011;32371;51.032;5.816;2022-07-29T15:19:33;2.13;;;1.05;;
46643;SDS011;32371;51.032;5.816;2022-07-29T15:21:58;2.60;;;1.23;;
46643;SDS011;32371;51.032;5.816;2022-07-29T15:24:24;2.35;;;0.95;;
46643;SDS011;32371;51.032;5.816;2022-07-29T15:26:49;1.63;;;1.17;;
46643;SDS011;32371;51.032;5.816;2022-07-29T15:29:15;2.35;;;1.00;;
46643;SDS011;32371;51.032;5.816;2022-07-29T15:31:40;7.00;;;1.60;;
46643;SDS011;32371;51.032;5.816;2022-07-29T15:34:06;3.22;;;1.35;;
46643;SDS011;32371;51.032;5.816;2022-07-29T15:36:31;2.95;;;1.10;;
46643;SDS011;32371;51.032;5.816;2022-07-29T15:38:56;1.10;;;0.80;;
46643;SDS011;32371;51.032;5.816;2022-07-29T15:41:22;1.20;;;1.02;;
46643;SDS011;32371;51.032;5.816;2022-07-29T15:43:48;1.42;;;1.13;;